sensor_id;sensor_type;location;lat;lon;timestamp;temperature;humidity
1391;DHT22;690;51.454;7.194;2023-07-31T00:01:59;13.60;1.00
1391;DHT22;690;51.454;7.194;2023-07-31T00:04:26;13.60;1.00
1391;DHT22;690;51.454;7.194;2023-07-31T00:06:52;13.60;1.00
1391;DHT22;690;51.454;7.194;2023-07-31T00:09:19;13.60;1.00
1391;DHT22;690;51.454;7.194;2023-07-31T00:11:47;13.60;1.00
1391;DHT22;690;51.454;7.194;2023-07-31T00:14:14;13.60;1.00
1391;DHT22;690;51.454;7.194;2023-07-31T00:16:42;13.60;1.00
1391;DHT22;690;51.454;7.194;2023-07-31T00:19:09;13.70;1.00
1391;DHT22;690;51.454;7.194;2023-07-31T00:21:36;13.70;1.00
1391;DHT22;690;51.454;7.194;2023-07-31T00:24:03;13.80;1.00
1391;DHT22;690;51.454;7.194;2023-07-31T00:26:29;13.80;1.00
1391;DHT22;690;51.454;7.194;2023-07-31T00:28:56;13.80;1.00
1391;DHT22;690;51.454;7.194;2023-07-31T00:31:23;13.80;1.00
1391;DHT22;690;51.454;7.194;2023-07-31T00:33:51;13.90;1.00
1391;DHT22;690;51.454;7.194;2023-07-31T00:36:18;13.90;1.00
1391;DHT22;690;51.454;7.194;2023-07-31T00:38:45;13.90;1.00
1391;DHT22;690;51.454;7.194;2023-07-31T00:41:12;14.00;1.00
1391;DHT22;690;51.454;7.194;2023-07-31T00:43:39;14.00;1.00
1391;DHT22;690;51.454;7.194;2023-07-31T00:46:06;14.10;1.00
1391;DHT22;690;51.454;7.194;2023-07-31T00:48:35;14.10;1.00
1391;DHT22;690;51.454;7.194;2023-07-31T00:51:03;14.10;1.00
1391;DHT22;690;51.454;7.194;2023-07-31T00:53:30;14.10;1.00
1391;DHT22;690;51.454;7.194;2023-07-31T00:55:58;14.10;1.00
1391;DHT22;690;51.454;7.194;2023-07-31T00:58:25;14.10;1.00
1391;DHT22;690;51.454;7.194;2023-07-31T01:00:52;14.20;1.00
1391;DHT22;690;51.454;7.194;2023-07-31T01:03:18;14.20;1.00
1391;DHT22;690;51.454;7.194;2023-07-31T01:05:55;14.20;1.00
1391;DHT22;690;51.454;7.194;2023-07-31T01:08:31;14.20;1.00
1391;DHT22;690;51.454;7.194;2023-07-31T01:11:03;14.20;1.00
1391;DHT22;690;51.454;7.194;2023-07-31T01:13:33;14.20;1.00
1391;DHT22;690;51.454;7.194;2023-07-31T01:16:00;14.20;1.00
1391;DHT22;690;51.454;7.194;2023-07-31T01:18:27;14.20;1.00
1391;DHT22;690;51.454;7.194;2023-07-31T01:21:01;14.20;1.00
1391;DHT22;690;51.454;7.194;2023-07-31T01:23:51;14.30;1.00
1391;DHT22;690;51.454;7.194;2023-07-31T01:26:29;14.30;1.00
1391;DHT22;690;51.454;7.194;2023-07-31T01:29:03;14.30;1.00
1391;DHT22;690;51.454;7.194;2023-07-31T01:31:33;14.30;1.00
1391;DHT22;690;51.454;7.194;2023-07-31T01:34:01;14.30;1.00
1391;DHT22;690;51.454;7.194;2023-07-31T01:36:29;14.40;1.00
1391;DHT22;690;51.454;7.194;2023-07-31T01:38:58;14.40;1.00
1391;DHT22;690;51.454;7.194;2023-07-31T01:41:27;14.40;1.00
1391;DHT22;690;51.454;7.194;2023-07-31T01:43:54;14.30;1.00
1391;DHT22;690;51.454;7.194;2023-07-31T01:46:21;14.30;1.00
1391;DHT22;690;51.454;7.194;2023-07-31T01:48:48;14.30;1.00
1391;DHT22;690;51.454;7.194;2023-07-31T01:51:14;14.30;1.00
1391;DHT22;690;51.454;7.194;2023-07-31T01:53:41;14.30;1.00
1391;DHT22;690;51.454;7.194;2023-07-31T01:56:08;14.30;1.00
1391;DHT22;690;51.454;7.194;2023-07-31T01:58:36;14.30;1.00
1391;DHT22;690;51.454;7.194;2023-07-31T02:01:03;14.30;1.00
1391;DHT22;690;51.454;7.194;2023-07-31T02:03:30;14.30;1.00
1391;DHT22;690;51.454;7.194;2023-07-31T02:05:57;14.30;1.00
1391;DHT22;690;51.454;7.194;2023-07-31T02:08:24;14.20;1.00
1391;DHT22;690;51.454;7.194;2023-07-31T02:10:51;14.30;1.00
1391;DHT22;690;51.454;7.194;2023-07-31T02:13:18;14.30;1.00
1391;DHT22;690;51.454;7.194;2023-07-31T02:15:48;14.30;1.00
1391;DHT22;690;51.454;7.194;2023-07-31T02:18:16;14.30;1.00
1391;DHT22;690;51.454;7.194;2023-07-31T02:20:42;14.30;1.00
1391;DHT22;690;51.454;7.194;2023-07-31T02:23:11;14.30;1.00
1391;DHT22;690;51.454;7.194;2023-07-31T02:25:38;14.30;1.00
1391;DHT22;690;51.454;7.194;2023-07-31T02:28:05;14.30;1.00
1391;DHT22;690;51.454;7.194;2023-07-31T02:30:32;14.30;1.00
1391;DHT22;690;51.454;7.194;2023-07-31T02:33:00;14.30;1.00
1391;DHT22;690;51.454;7.194;2023-07-31T02:35:27;14.30;1.00
1391;DHT22;690;51.454;7.194;2023-07-31T02:37:54;14.40;1.00
1391;DHT22;690;51.454;7.194;2023-07-31T02:40:21;14.30;1.00
1391;DHT22;690;51.454;7.194;2023-07-31T02:42:48;14.30;1.00
1391;DHT22;690;51.454;7.194;2023-07-31T02:45:15;14.30;1.00
1391;DHT22;690;51.454;7.194;2023-07-31T02:47:41;14.30;1.00
1391;DHT22;690;51.454;7.194;2023-07-31T02:50:10;14.30;1.00
1391;DHT22;690;51.454;7.194;2023-07-31T02:52:37;14.30;1.00
1391;DHT22;690;51.454;7.194;2023-07-31T02:55:05;14.30;1.00
1391;DHT22;690;51.454;7.194;2023-07-31T02:57:32;14.30;1.00
1391;DHT22;690;51.454;7.194;2023-07-31T02:59:59;14.20;1.00
1391;DHT22;690;51.454;7.194;2023-07-31T03:02:26;14.30;1.00
1391;DHT22;690;51.454;7.194;2023-07-31T03:04:53;14.30;1.00
1391;DHT22;690;51.454;7.194;2023-07-31T03:07:21;14.30;1.00
1391;DHT22;690;51.454;7.194;2023-07-31T03:09:48;14.30;1.00
1391;DHT22;690;51.454;7.194;2023-07-31T03:12:15;14.30;1.00
1391;DHT22;690;51.454;7.194;2023-07-31T03:14:42;14.30;1.00
1391;DHT22;690;51.454;7.194;2023-07-31T03:17:09;14.30;1.00
1391;DHT22;690;51.454;7.194;2023-07-31T03:19:36;14.30;1.00
1391;DHT22;690;51.454;7.194;2023-07-31T03:22:03;14.30;1.00
1391;DHT22;690;51.454;7.194;2023-07-31T03:24:31;14.30;1.00
1391;DHT22;690;51.454;7.194;2023-07-31T03:26:58;14.30;1.00
1391;DHT22;690;51.454;7.194;2023-07-31T03:29:25;14.30;1.00
1391;DHT22;690;51.454;7.194;2023-07-31T03:31:52;14.30;99.90
1391;DHT22;690;51.454;7.194;2023-07-31T03:34:19;14.40;99.90
1391;DHT22;690;51.454;7.194;2023-07-31T03:36:46;14.30;99.90
1391;DHT22;690;51.454;7.194;2023-07-31T03:39:13;14.30;99.90
1391;DHT22;690;51.454;7.194;2023-07-31T03:41:41;14.30;99.90
1391;DHT22;690;51.454;7.194;2023-07-31T03:44:08;14.30;99.90
1391;DHT22;690;51.454;7.194;2023-07-31T03:46:35;14.30;99.90
1391;DHT22;690;51.454;7.194;2023-07-31T03:49:02;14.30;99.90
1391;DHT22;690;51.454;7.194;2023-07-31T03:51:28;14.30;99.90
1391;DHT22;690;51.454;7.194;2023-07-31T03:53:55;14.40;99.90
1391;DHT22;690;51.454;7.194;2023-07-31T03:56:22;14.40;99.90
1391;DHT22;690;51.454;7.194;2023-07-31T03:58:50;14.40;99.90
1391;DHT22;690;51.454;7.194;2023-07-31T04:01:17;14.40;99.90
1391;DHT22;690;51.454;7.194;2023-07-31T04:03:45;14.50;99.90
1391;DHT22;690;51.454;7.194;2023-07-31T04:06:12;14.50;99.90
1391;DHT22;690;51.454;7.194;2023-07-31T04:08:39;14.50;99.90
1391;DHT22;690;51.454;7.194;2023-07-31T04:11:05;14.60;99.90
1391;DHT22;690;51.454;7.194;2023-07-31T04:13:32;14.60;99.90
1391;DHT22;690;51.454;7.194;2023-07-31T04:16:01;14.60;99.90
1391;DHT22;690;51.454;7.194;2023-07-31T04:18:27;14.60;99.90
1391;DHT22;690;51.454;7.194;2023-07-31T04:20:56;14.60;99.90
1391;DHT22;690;51.454;7.194;2023-07-31T04:23:24;14.60;99.90
1391;DHT22;690;51.454;7.194;2023-07-31T04:25:51;14.60;99.90
1391;DHT22;690;51.454;7.194;2023-07-31T04:28:17;14.70;99.90
1391;DHT22;690;51.454;7.194;2023-07-31T04:30:44;14.70;95.80
1391;DHT22;690;51.454;7.194;2023-07-31T04:33:13;14.70;95.40
1391;DHT22;690;51.454;7.194;2023-07-31T04:35:39;14.70;99.90
1391;DHT22;690;51.454;7.194;2023-07-31T04:38:06;14.80;1.00
1391;DHT22;690;51.454;7.194;2023-07-31T04:40:33;14.80;1.00
1391;DHT22;690;51.454;7.194;2023-07-31T04:43:00;14.90;1.00
1391;DHT22;690;51.454;7.194;2023-07-31T04:45:27;14.90;1.00
1391;DHT22;690;51.454;7.194;2023-07-31T04:47:54;14.90;1.00
1391;DHT22;690;51.454;7.194;2023-07-31T04:50:22;14.90;1.00
1391;DHT22;690;51.454;7.194;2023-07-31T04:52:49;14.90;1.00
1391;DHT22;690;51.454;7.194;2023-07-31T04:55:16;15.00;1.00
1391;DHT22;690;51.454;7.194;2023-07-31T04:57:43;15.00;1.00
1391;DHT22;690;51.454;7.194;2023-07-31T05:00:10;14.90;1.00
1391;DHT22;690;51.454;7.194;2023-07-31T05:02:37;14.90;1.00
1391;DHT22;690;51.454;7.194;2023-07-31T05:05:04;14.90;1.00
1391;DHT22;690;51.454;7.194;2023-07-31T05:07:33;14.90;1.00
1391;DHT22;690;51.454;7.194;2023-07-31T05:09:59;14.90;1.00
1391;DHT22;690;51.454;7.194;2023-07-31T05:12:26;14.90;1.00
1391;DHT22;690;51.454;7.194;2023-07-31T05:14:53;14.90;10.50
1391;DHT22;690;51.454;7.194;2023-07-31T05:17:20;15.00;48.30
1391;DHT22;690;51.454;7.194;2023-07-31T05:19:47;15.00;99.90
1391;DHT22;690;51.454;7.194;2023-07-31T05:22:14;15.00;99.90
1391;DHT22;690;51.454;7.194;2023-07-31T05:24:42;15.10;99.90
1391;DHT22;690;51.454;7.194;2023-07-31T05:27:09;15.10;99.90
1391;DHT22;690;51.454;7.194;2023-07-31T05:29:36;15.10;99.90
1391;DHT22;690;51.454;7.194;2023-07-31T05:32:03;15.20;93.20
1391;DHT22;690;51.454;7.194;2023-07-31T05:34:31;15.20;62.30
1391;DHT22;690;51.454;7.194;2023-07-31T05:36:57;15.10;59.70
1391;DHT22;690;51.454;7.194;2023-07-31T05:39:24;15.10;99.90
1391;DHT22;690;51.454;7.194;2023-07-31T05:41:53;15.10;99.90
1391;DHT22;690;51.454;7.194;2023-07-31T05:44:19;15.10;99.90
1391;DHT22;690;51.454;7.194;2023-07-31T05:46:46;15.10;99.90
1391;DHT22;690;51.454;7.194;2023-07-31T05:49:13;15.10;99.90
1391;DHT22;690;51.454;7.194;2023-07-31T05:51:40;15.10;99.90
1391;DHT22;690;51.454;7.194;2023-07-31T05:54:07;15.10;99.90
1391;DHT22;690;51.454;7.194;2023-07-31T05:56:34;15.20;99.90
1391;DHT22;690;51.454;7.194;2023-07-31T05:59:02;15.20;99.90
1391;DHT22;690;51.454;7.194;2023-07-31T06:01:30;15.20;99.90
1391;DHT22;690;51.454;7.194;2023-07-31T06:03:57;15.20;99.90
1391;DHT22;690;51.454;7.194;2023-07-31T06:06:24;15.20;99.90
1391;DHT22;690;51.454;7.194;2023-07-31T06:08:51;15.20;99.90
1391;DHT22;690;51.454;7.194;2023-07-31T06:11:19;15.20;99.90
1391;DHT22;690;51.454;7.194;2023-07-31T06:13:46;15.20;99.90
1391;DHT22;690;51.454;7.194;2023-07-31T06:16:16;15.20;99.90
1391;DHT22;690;51.454;7.194;2023-07-31T06:18:43;15.20;99.90
1391;DHT22;690;51.454;7.194;2023-07-31T06:21:10;15.20;99.90
1391;DHT22;690;51.454;7.194;2023-07-31T06:23:37;15.20;99.90
1391;DHT22;690;51.454;7.194;2023-07-31T06:26:04;15.20;99.90
1391;DHT22;690;51.454;7.194;2023-07-31T06:28:31;15.20;99.90
1391;DHT22;690;51.454;7.194;2023-07-31T06:30:58;15.30;99.90
1391;DHT22;690;51.454;7.194;2023-07-31T06:33:27;15.30;99.90
1391;DHT22;690;51.454;7.194;2023-07-31T06:35:54;15.30;99.90
1391;DHT22;690;51.454;7.194;2023-07-31T06:38:24;15.40;99.90
1391;DHT22;690;51.454;7.194;2023-07-31T06:40:51;15.40;99.90
1391;DHT22;690;51.454;7.194;2023-07-31T06:43:18;15.40;99.90
1391;DHT22;690;51.454;7.194;2023-07-31T06:45:45;15.40;99.90
1391;DHT22;690;51.454;7.194;2023-07-31T06:48:14;15.40;99.90
1391;DHT22;690;51.454;7.194;2023-07-31T06:50:42;15.40;99.90
1391;DHT22;690;51.454;7.194;2023-07-31T06:53:09;15.40;99.90
1391;DHT22;690;51.454;7.194;2023-07-31T06:55:36;15.40;99.90
1391;DHT22;690;51.454;7.194;2023-07-31T06:58:03;15.50;99.90
1391;DHT22;690;51.454;7.194;2023-07-31T07:00:30;15.50;99.90
1391;DHT22;690;51.454;7.194;2023-07-31T07:02:59;15.40;99.90
1391;DHT22;690;51.454;7.194;2023-07-31T07:05:25;15.50;99.90
1391;DHT22;690;51.454;7.194;2023-07-31T07:07:54;15.50;99.90
1391;DHT22;690;51.454;7.194;2023-07-31T07:10:21;15.60;99.90
1391;DHT22;690;51.454;7.194;2023-07-31T07:12:48;15.60;99.90
1391;DHT22;690;51.454;7.194;2023-07-31T07:15:15;15.50;99.90
1391;DHT22;690;51.454;7.194;2023-07-31T07:17:42;15.50;99.90
1391;DHT22;690;51.454;7.194;2023-07-31T07:20:09;15.60;99.90
1391;DHT22;690;51.454;7.194;2023-07-31T07:22:36;15.70;99.90
1391;DHT22;690;51.454;7.194;2023-07-31T07:25:05;15.70;99.90
1391;DHT22;690;51.454;7.194;2023-07-31T07:27:33;15.70;99.90
1391;DHT22;690;51.454;7.194;2023-07-31T07:30:00;15.80;99.90
1391;DHT22;690;51.454;7.194;2023-07-31T07:32:27;15.80;99.90
1391;DHT22;690;51.454;7.194;2023-07-31T07:34:54;15.80;99.90
1391;DHT22;690;51.454;7.194;2023-07-31T07:37:21;15.80;99.90
1391;DHT22;690;51.454;7.194;2023-07-31T07:39:48;15.80;99.90
1391;DHT22;690;51.454;7.194;2023-07-31T07:42:17;15.90;99.90
1391;DHT22;690;51.454;7.194;2023-07-31T07:44:44;15.90;99.90
1391;DHT22;690;51.454;7.194;2023-07-31T07:47:11;16.00;99.90
1391;DHT22;690;51.454;7.194;2023-07-31T07:49:38;16.00;99.90
1391;DHT22;690;51.454;7.194;2023-07-31T07:52:05;16.00;99.90
1391;DHT22;690;51.454;7.194;2023-07-31T07:54:32;16.00;99.90
1391;DHT22;690;51.454;7.194;2023-07-31T07:56:59;16.00;99.90
1391;DHT22;690;51.454;7.194;2023-07-31T07:59:27;16.00;99.90
1391;DHT22;690;51.454;7.194;2023-07-31T08:01:54;16.00;99.90
1391;DHT22;690;51.454;7.194;2023-07-31T08:04:21;15.90;99.90
1391;DHT22;690;51.454;7.194;2023-07-31T08:06:48;15.80;99.90
1391;DHT22;690;51.454;7.194;2023-07-31T08:09:15;15.80;99.90
1391;DHT22;690;51.454;7.194;2023-07-31T08:11:42;15.80;99.90
1391;DHT22;690;51.454;7.194;2023-07-31T08:14:09;15.80;99.90
1391;DHT22;690;51.454;7.194;2023-07-31T08:16:38;15.90;99.90
1391;DHT22;690;51.454;7.194;2023-07-31T08:19:05;16.00;99.90
1391;DHT22;690;51.454;7.194;2023-07-31T08:21:32;16.00;23.20
1391;DHT22;690;51.454;7.194;2023-07-31T08:23:59;16.00;12.00
1391;DHT22;690;51.454;7.194;2023-07-31T08:26:25;16.00;1.00
1391;DHT22;690;51.454;7.194;2023-07-31T08:28:52;16.00;1.00
1391;DHT22;690;51.454;7.194;2023-07-31T08:31:19;15.90;74.60
1391;DHT22;690;51.454;7.194;2023-07-31T08:33:47;15.90;75.40
1391;DHT22;690;51.454;7.194;2023-07-31T08:36:14;15.90;99.90
1391;DHT22;690;51.454;7.194;2023-07-31T08:38:41;16.10;99.90
1391;DHT22;690;51.454;7.194;2023-07-31T08:41:08;16.20;99.90
1391;DHT22;690;51.454;7.194;2023-07-31T08:43:36;16.40;99.90
1391;DHT22;690;51.454;7.194;2023-07-31T08:46:05;16.40;1.00
1391;DHT22;690;51.454;7.194;2023-07-31T08:48:32;16.40;99.90
1391;DHT22;690;51.454;7.194;2023-07-31T08:51:02;16.40;99.90
1391;DHT22;690;51.454;7.194;2023-07-31T08:53:29;16.20;99.90
1391;DHT22;690;51.454;7.194;2023-07-31T08:55:56;16.10;1.00
1391;DHT22;690;51.454;7.194;2023-07-31T08:58:25;16.10;13.30
1391;DHT22;690;51.454;7.194;2023-07-31T09:00:55;16.10;99.90
1391;DHT22;690;51.454;7.194;2023-07-31T09:03:24;16.20;99.90
1391;DHT22;690;51.454;7.194;2023-07-31T09:05:52;16.30;99.90
1391;DHT22;690;51.454;7.194;2023-07-31T09:08:21;16.40;99.90
1391;DHT22;690;51.454;7.194;2023-07-31T09:10:49;16.40;1.00
1391;DHT22;690;51.454;7.194;2023-07-31T09:13:16;16.40;17.10
1391;DHT22;690;51.454;7.194;2023-07-31T09:15:44;16.30;1.00
1391;DHT22;690;51.454;7.194;2023-07-31T09:18:11;16.20;99.90
1391;DHT22;690;51.454;7.194;2023-07-31T09:20:39;16.30;99.90
1391;DHT22;690;51.454;7.194;2023-07-31T09:23:08;16.30;99.90
1391;DHT22;690;51.454;7.194;2023-07-31T09:25:37;16.20;10.40
1391;DHT22;690;51.454;7.194;2023-07-31T09:28:05;16.20;99.90
1391;DHT22;690;51.454;7.194;2023-07-31T09:30:44;16.10;1.00
1391;DHT22;690;51.454;7.194;2023-07-31T09:33:11;16.10;1.00
1391;DHT22;690;51.454;7.194;2023-07-31T09:35:39;16.10;1.00
1391;DHT22;690;51.454;7.194;2023-07-31T09:38:10;16.10;1.00
1391;DHT22;690;51.454;7.194;2023-07-31T09:40:39;16.10;1.00
1391;DHT22;690;51.454;7.194;2023-07-31T09:43:08;16.10;1.00
1391;DHT22;690;51.454;7.194;2023-07-31T09:45:37;16.10;1.00
1391;DHT22;690;51.454;7.194;2023-07-31T09:48:07;16.10;1.00
1391;DHT22;690;51.454;7.194;2023-07-31T09:50:37;16.20;99.90
1391;DHT22;690;51.454;7.194;2023-07-31T09:53:05;16.20;1.00
1391;DHT22;690;51.454;7.194;2023-07-31T09:55:32;16.20;1.00
1391;DHT22;690;51.454;7.194;2023-07-31T09:58:04;16.30;1.00
1391;DHT22;690;51.454;7.194;2023-07-31T10:00:31;16.30;1.00
1391;DHT22;690;51.454;7.194;2023-07-31T10:02:59;16.20;1.00
1391;DHT22;690;51.454;7.194;2023-07-31T10:05:31;16.20;1.00
1391;DHT22;690;51.454;7.194;2023-07-31T10:08:00;16.30;1.00
1391;DHT22;690;51.454;7.194;2023-07-31T10:10:27;16.40;1.00
1391;DHT22;690;51.454;7.194;2023-07-31T10:12:56;16.40;1.00
1391;DHT22;690;51.454;7.194;2023-07-31T10:15:25;16.60;1.00
1391;DHT22;690;51.454;7.194;2023-07-31T10:17:54;16.50;99.90
1391;DHT22;690;51.454;7.194;2023-07-31T10:20:21;16.50;99.90
1391;DHT22;690;51.454;7.194;2023-07-31T10:22:49;16.50;99.90
1391;DHT22;690;51.454;7.194;2023-07-31T10:25:16;16.50;99.90
1391;DHT22;690;51.454;7.194;2023-07-31T10:27:45;16.60;99.90
1391;DHT22;690;51.454;7.194;2023-07-31T10:30:17;16.60;99.90
1391;DHT22;690;51.454;7.194;2023-07-31T10:32:47;16.60;99.90
1391;DHT22;690;51.454;7.194;2023-07-31T10:35:16;16.80;99.90
1391;DHT22;690;51.454;7.194;2023-07-31T10:37:44;16.90;1.00
1391;DHT22;690;51.454;7.194;2023-07-31T10:40:12;16.90;1.00
1391;DHT22;690;51.454;7.194;2023-07-31T10:42:46;16.90;1.00
1391;DHT22;690;51.454;7.194;2023-07-31T10:45:14;16.90;1.00
1391;DHT22;690;51.454;7.194;2023-07-31T10:47:58;16.90;1.00
1391;DHT22;690;51.454;7.194;2023-07-31T10:50:28;16.80;99.90
1391;DHT22;690;51.454;7.194;2023-07-31T10:52:57;16.70;1.00
1391;DHT22;690;51.454;7.194;2023-07-31T10:55:26;16.50;1.00
1391;DHT22;690;51.454;7.194;2023-07-31T10:57:52;16.40;93.90
1391;DHT22;690;51.454;7.194;2023-07-31T11:00:22;16.30;99.90
1391;DHT22;690;51.454;7.194;2023-07-31T11:03:04;16.20;1.00
1391;DHT22;690;51.454;7.194;2023-07-31T11:05:47;16.10;1.00
1391;DHT22;690;51.454;7.194;2023-07-31T11:08:16;16.00;1.00
1391;DHT22;690;51.454;7.194;2023-07-31T11:10:43;16.00;99.90
1391;DHT22;690;51.454;7.194;2023-07-31T11:13:11;16.00;99.90
1391;DHT22;690;51.454;7.194;2023-07-31T11:15:38;15.90;99.90
1391;DHT22;690;51.454;7.194;2023-07-31T11:18:07;15.90;99.90
1391;DHT22;690;51.454;7.194;2023-07-31T11:20:36;16.00;99.90
1391;DHT22;690;51.454;7.194;2023-07-31T11:23:06;16.10;99.90
1391;DHT22;690;51.454;7.194;2023-07-31T11:25:34;16.20;99.90
1391;DHT22;690;51.454;7.194;2023-07-31T11:28:05;16.40;99.90
1391;DHT22;690;51.454;7.194;2023-07-31T11:30:32;16.50;99.90
1391;DHT22;690;51.454;7.194;2023-07-31T11:33:02;16.60;1.00
1391;DHT22;690;51.454;7.194;2023-07-31T11:35:32;16.60;1.00
1391;DHT22;690;51.454;7.194;2023-07-31T11:37:59;16.60;1.00
1391;DHT22;690;51.454;7.194;2023-07-31T11:40:26;16.60;1.00
1391;DHT22;690;51.454;7.194;2023-07-31T11:42:56;16.60;99.90
1391;DHT22;690;51.454;7.194;2023-07-31T11:45:26;16.60;99.90
1391;DHT22;690;51.454;7.194;2023-07-31T11:47:55;16.70;99.90
1391;DHT22;690;51.454;7.194;2023-07-31T11:50:23;16.90;99.90
1391;DHT22;690;51.454;7.194;2023-07-31T11:52:54;16.80;76.60
1391;DHT22;690;51.454;7.194;2023-07-31T11:55:23;16.90;99.90
1391;DHT22;690;51.454;7.194;2023-07-31T11:57:51;17.20;99.90
1391;DHT22;690;51.454;7.194;2023-07-31T12:00:19;17.30;1.00
1391;DHT22;690;51.454;7.194;2023-07-31T12:02:46;17.50;99.90
1391;DHT22;690;51.454;7.194;2023-07-31T12:05:14;17.80;1.00
1391;DHT22;690;51.454;7.194;2023-07-31T12:07:49;17.90;1.00
1391;DHT22;690;51.454;7.194;2023-07-31T12:10:25;18.00;1.00
1391;DHT22;690;51.454;7.194;2023-07-31T12:12:57;18.10;1.00
1391;DHT22;690;51.454;7.194;2023-07-31T12:15:29;18.20;99.90
1391;DHT22;690;51.454;7.194;2023-07-31T12:17:57;18.40;99.90
1391;DHT22;690;51.454;7.194;2023-07-31T12:20:24;18.50;1.00
1391;DHT22;690;51.454;7.194;2023-07-31T12:22:51;18.50;1.00
1391;DHT22;690;51.454;7.194;2023-07-31T12:25:18;18.40;1.00
1391;DHT22;690;51.454;7.194;2023-07-31T12:27:46;18.30;1.00
1391;DHT22;690;51.454;7.194;2023-07-31T12:30:27;18.10;1.00
1391;DHT22;690;51.454;7.194;2023-07-31T12:32:54;18.00;1.00
1391;DHT22;690;51.454;7.194;2023-07-31T12:35:21;17.90;1.00
1391;DHT22;690;51.454;7.194;2023-07-31T12:37:47;17.70;1.00
1391;DHT22;690;51.454;7.194;2023-07-31T12:40:15;17.60;99.90
1391;DHT22;690;51.454;7.194;2023-07-31T12:42:42;17.50;99.90
1391;DHT22;690;51.454;7.194;2023-07-31T12:45:10;17.40;99.90
1391;DHT22;690;51.454;7.194;2023-07-31T12:47:37;17.40;99.90
1391;DHT22;690;51.454;7.194;2023-07-31T12:50:05;17.30;1.00
1391;DHT22;690;51.454;7.194;2023-07-31T12:52:32;17.30;1.00
1391;DHT22;690;51.454;7.194;2023-07-31T12:54:59;17.20;99.90
1391;DHT22;690;51.454;7.194;2023-07-31T12:57:28;17.20;1.00
1391;DHT22;690;51.454;7.194;2023-07-31T12:59:56;17.30;19.60
1391;DHT22;690;51.454;7.194;2023-07-31T13:02:24;17.50;1.00
1391;DHT22;690;51.454;7.194;2023-07-31T13:04:51;17.60;1.00
1391;DHT22;690;51.454;7.194;2023-07-31T13:07:19;17.60;99.90
1391;DHT22;690;51.454;7.194;2023-07-31T13:09:46;17.90;99.90
1391;DHT22;690;51.454;7.194;2023-07-31T13:12:13;18.00;86.00
1391;DHT22;690;51.454;7.194;2023-07-31T13:14:40;18.00;1.00
1391;DHT22;690;51.454;7.194;2023-07-31T13:17:07;18.00;99.90
1391;DHT22;690;51.454;7.194;2023-07-31T13:19:35;17.90;99.90
1391;DHT22;690;51.454;7.194;2023-07-31T13:22:02;17.80;99.90
1391;DHT22;690;51.454;7.194;2023-07-31T13:24:29;17.70;99.90
1391;DHT22;690;51.454;7.194;2023-07-31T13:26:57;17.80;99.90
1391;DHT22;690;51.454;7.194;2023-07-31T13:29:24;17.80;99.90
1391;DHT22;690;51.454;7.194;2023-07-31T13:31:52;17.80;1.00
1391;DHT22;690;51.454;7.194;2023-07-31T13:34:19;17.90;99.90
1391;DHT22;690;51.454;7.194;2023-07-31T13:36:47;18.00;99.90
1391;DHT22;690;51.454;7.194;2023-07-31T13:39:14;18.00;99.90
1391;DHT22;690;51.454;7.194;2023-07-31T13:41:41;18.00;99.90
1391;DHT22;690;51.454;7.194;2023-07-31T13:44:08;18.10;99.90
1391;DHT22;690;51.454;7.194;2023-07-31T13:46:35;18.30;99.90
1391;DHT22;690;51.454;7.194;2023-07-31T13:49:02;18.30;99.90
1391;DHT22;690;51.454;7.194;2023-07-31T13:51:29;18.40;85.20
1391;DHT22;690;51.454;7.194;2023-07-31T13:53:57;18.40;1.00
1391;DHT22;690;51.454;7.194;2023-07-31T13:56:24;18.30;1.00
1391;DHT22;690;51.454;7.194;2023-07-31T13:58:51;18.20;1.00
1391;DHT22;690;51.454;7.194;2023-07-31T14:01:17;18.10;1.00
1391;DHT22;690;51.454;7.194;2023-07-31T14:03:44;18.10;1.00
1391;DHT22;690;51.454;7.194;2023-07-31T14:06:11;18.00;1.00
1391;DHT22;690;51.454;7.194;2023-07-31T14:08:38;18.10;1.00
1391;DHT22;690;51.454;7.194;2023-07-31T14:11:06;18.30;1.00
1391;DHT22;690;51.454;7.194;2023-07-31T14:13:33;18.40;1.00
1391;DHT22;690;51.454;7.194;2023-07-31T14:16:00;18.60;1.00
1391;DHT22;690;51.454;7.194;2023-07-31T14:18:27;18.70;1.00
1391;DHT22;690;51.454;7.194;2023-07-31T14:20:54;18.70;1.00
1391;DHT22;690;51.454;7.194;2023-07-31T14:23:21;18.70;1.00
1391;DHT22;690;51.454;7.194;2023-07-31T14:25:48;18.70;1.00
1391;DHT22;690;51.454;7.194;2023-07-31T14:28:16;18.80;1.00
1391;DHT22;690;51.454;7.194;2023-07-31T14:30:43;19.10;99.90
1391;DHT22;690;51.454;7.194;2023-07-31T14:33:10;19.40;99.90
1391;DHT22;690;51.454;7.194;2023-07-31T14:35:37;19.60;99.90
1391;DHT22;690;51.454;7.194;2023-07-31T14:38:04;19.60;55.50
1391;DHT22;690;51.454;7.194;2023-07-31T14:40:30;19.60;22.30
1391;DHT22;690;51.454;7.194;2023-07-31T14:42:57;19.40;1.00
1391;DHT22;690;51.454;7.194;2023-07-31T14:45:26;19.40;1.00
1391;DHT22;690;51.454;7.194;2023-07-31T14:47:53;19.30;1.00
1391;DHT22;690;51.454;7.194;2023-07-31T14:50:20;19.10;1.00
1391;DHT22;690;51.454;7.194;2023-07-31T14:52:47;18.90;1.00
1391;DHT22;690;51.454;7.194;2023-07-31T14:55:16;18.70;1.00
1391;DHT22;690;51.454;7.194;2023-07-31T14:57:48;18.60;17.60
1391;DHT22;690;51.454;7.194;2023-07-31T15:00:15;18.50;50.10
1391;DHT22;690;51.454;7.194;2023-07-31T15:02:44;18.30;76.80
1391;DHT22;690;51.454;7.194;2023-07-31T15:05:10;18.10;99.90
1391;DHT22;690;51.454;7.194;2023-07-31T15:07:38;18.10;99.90
1391;DHT22;690;51.454;7.194;2023-07-31T15:10:06;18.00;99.90
1391;DHT22;690;51.454;7.194;2023-07-31T15:12:35;18.00;99.90
1391;DHT22;690;51.454;7.194;2023-07-31T15:15:04;18.00;99.90
1391;DHT22;690;51.454;7.194;2023-07-31T15:17:31;17.90;99.90
1391;DHT22;690;51.454;7.194;2023-07-31T15:19:59;17.90;99.90
1391;DHT22;690;51.454;7.194;2023-07-31T15:22:26;17.80;99.90
1391;DHT22;690;51.454;7.194;2023-07-31T15:24:54;17.80;1.00
1391;DHT22;690;51.454;7.194;2023-07-31T15:27:21;17.70;1.00
1391;DHT22;690;51.454;7.194;2023-07-31T15:29:49;17.70;1.00
1391;DHT22;690;51.454;7.194;2023-07-31T15:32:17;17.60;1.00
1391;DHT22;690;51.454;7.194;2023-07-31T15:34:44;17.50;1.00
1391;DHT22;690;51.454;7.194;2023-07-31T15:37:13;17.50;1.00
1391;DHT22;690;51.454;7.194;2023-07-31T15:39:40;17.50;1.00
1391;DHT22;690;51.454;7.194;2023-07-31T15:42:07;17.40;1.00
1391;DHT22;690;51.454;7.194;2023-07-31T15:44:34;17.40;32.30
1391;DHT22;690;51.454;7.194;2023-07-31T15:47:02;17.50;99.90
1391;DHT22;690;51.454;7.194;2023-07-31T15:49:29;17.50;7.10
1391;DHT22;690;51.454;7.194;2023-07-31T15:51:56;17.50;1.00
1391;DHT22;690;51.454;7.194;2023-07-31T15:54:24;17.50;1.00
1391;DHT22;690;51.454;7.194;2023-07-31T15:56:51;17.50;1.00
1391;DHT22;690;51.454;7.194;2023-07-31T15:59:18;17.50;1.00
1391;DHT22;690;51.454;7.194;2023-07-31T16:01:45;17.50;1.00
1391;DHT22;690;51.454;7.194;2023-07-31T16:04:12;17.50;1.00
1391;DHT22;690;51.454;7.194;2023-07-31T16:06:39;17.60;1.00
1391;DHT22;690;51.454;7.194;2023-07-31T16:09:05;17.50;1.00
1391;DHT22;690;51.454;7.194;2023-07-31T16:11:34;17.50;1.00
1391;DHT22;690;51.454;7.194;2023-07-31T16:14:01;17.50;1.00
1391;DHT22;690;51.454;7.194;2023-07-31T16:16:29;17.50;1.00
1391;DHT22;690;51.454;7.194;2023-07-31T16:18:56;17.50;1.00
1391;DHT22;690;51.454;7.194;2023-07-31T16:21:23;17.50;1.00
1391;DHT22;690;51.454;7.194;2023-07-31T16:23:50;17.50;1.00
1391;DHT22;690;51.454;7.194;2023-07-31T16:26:16;17.50;1.00
1391;DHT22;690;51.454;7.194;2023-07-31T16:28:45;17.50;1.00
1391;DHT22;690;51.454;7.194;2023-07-31T16:31:11;17.40;1.00